Time;durP1;ratioP1;P1;durP2;ratioP2;P2;SDS_P1;SDS_P2;PMS_P1;PMS_P2;Temp;Humidity;BMP_temperature;BMP_pressure;BME280_temperature;BME280_humidity;BME280_pressure;Samples;Min_cycle;Max_cycle;Signal;HPM_P1;HPM_P2
2023/06/25 08:57:34;;;;;;;5.57;3.85;;;;;;;24.56;58.06;101561.28;5065423;28;20414;-66
2023/06/25 09:00:00;;;;;;;4.90;4.20;;;;;;;24.63;56.75;101551.78;5057157;28;20079;-66
2023/06/25 09:02:27;;;;;;;10.45;4.22;;;;;;;24.79;58.15;101563.41;5046477;28;20037;-66
2023/06/25 09:04:53;;;;;;;4.30;3.90;;;;;;;24.80;54.76;101553.97;5054161;28;20480;-68
2023/06/25 09:07:19;;;;;;;5.25;4.07;;;;;;;24.82;55.21;101560.03;5067605;28;20033;-66
2023/06/25 09:09:51;;;;;;;6.20;4.72;;;;;;;24.94;55.92;101563.94;5068829;28;20472;-68
2023/06/25 09:12:23;;;;;;;5.60;4.15;;;;;;;24.95;54.12;101559.22;5068969;28;20036;-69
2023/06/25 09:14:48;;;;;;;7.03;4.25;;;;;;;25.14;53.80;101559.16;5067377;28;20379;-67
2023/06/25 09:17:22;;;;;;;5.95;4.03;;;;;;;25.21;53.29;101554.03;5048891;28;20029;-68
2023/06/25 09:19:47;;;;;;;5.82;3.83;;;;;;;25.37;54.26;101553.75;5049070;28;20041;-66
2023/06/25 09:22:13;;;;;;;5.45;3.95;;;;;;;25.44;52.73;101543.06;5049019;28;20465;-66
2023/06/25 09:24:42;;;;;;;4.80;4.25;;;;;;;25.50;52.40;101550.16;5046958;28;20457;-68
2023/06/25 09:27:10;;;;;;;5.00;3.90;;;;;;;25.68;52.21;101544.78;5048959;28;20037;-68
2023/06/25 09:29:36;;;;;;;4.25;3.85;;;;;;;25.64;50.74;101548.16;5039254;28;20029;-68
2023/06/25 09:32:09;;;;;;;10.07;4.00;;;;;;;25.81;52.08;101544.72;5034103;28;20040;-69
2023/06/25 09:34:36;;;;;;;7.88;4.18;;;;;;;25.80;51.63;101543.13;5030099;28;20056;-69
2023/06/25 09:37:02;;;;;;;6.03;4.00;;;;;;;25.86;54.19;101541.03;5027270;28;20037;-68
2023/06/25 09:39:31;;;;;;;5.32;3.75;;;;;;;25.87;49.84;101542.66;5034156;28;20469;-67
2023/06/25 09:42:00;;;;;;;5.43;4.13;;;;;;;25.96;49.87;101538.03;5028693;28;20038;-67
2023/06/25 09:44:26;;;;;;;4.80;3.80;;;;;;;25.98;49.50;101546.03;5028934;28;20041;-67
2023/06/25 09:47:03;;;;;;;5.90;4.00;;;;;;;26.02;49.29;101535.97;5028948;28;20092;-67
2023/06/25 09:49:31;;;;;;;7.40;3.80;;;;;;;26.11;49.68;101528.56;5029683;28;20092;-67
2023/06/25 09:52:02;;;;;;;4.57;3.70;;;;;;;26.12;49.64;101532.16;5028872;28;20124;-69
2023/06/25 09:54:29;;;;;;;7.38;3.72;;;;;;;26.21;49.51;101526.66;5032332;28;20515;-70
2023/06/25 09:56:57;;;;;;;5.30;3.50;;;;;;;26.33;49.26;101524.13;5048308;28;20053;-69
2023/06/25 09:59:23;;;;;;;5.75;4.18;;;;;;;26.31;48.57;101518.09;5041993;28;20362;-69
2023/06/25 10:01:49;;;;;;;7.10;3.80;;;;;;;26.39;49.22;101530.38;5026369;28;20029;-68
2023/06/25 10:04:14;;;;;;;5.10;3.80;;;;;;;26.49;49.28;101519.03;5031635;28;20032;-68
2023/06/25 10:06:40;;;;;;;4.22;3.83;;;;;;;26.53;48.92;101526.41;5059228;28;20036;-68
2023/06/25 10:09:06;;;;;;;5.10;4.00;;;;;;;26.64;47.81;101526.13;5037653;28;20033;-67
2023/06/25 10:11:32;;;;;;;6.32;3.92;;;;;;;26.65;47.29;101522.22;5030547;28;20033;-71
2023/06/25 10:13:58;;;;;;;5.30;3.78;;;;;;;26.66;46.79;101519.16;5035337;28;20033;-71
2023/06/25 10:16:29;;;;;;;7.22;4.00;;;;;;;26.73;45.52;101526.22;5023401;28;20084;-72
2023/06/25 10:18:56;;;;;;;4.50;3.63;;;;;;;26.78;48.18;101514.97;5015278;28;20599;-69
2023/06/25 10:21:23;;;;;;;4.20;3.80;;;;;;;26.87;46.25;101513.03;5015382;28;20040;-70
2023/06/25 10:24:03;;;;;;;3.95;3.53;;;;;;;26.89;45.88;101510.78;5015172;28;20038;-68
2023/06/25 10:26:30;;;;;;;6.03;3.77;;;;;;;26.93;46.07;101511.75;5015311;28;20121;-68
2023/06/25 10:28:59;;;;;;;4.57;4.18;;;;;;;26.96;45.07;101508.34;5018643;28;20437;-68
2023/06/25 10:31:26;;;;;;;5.50;3.97;;;;;;;27.09;44.29;101497.44;5017688;28;20072;-67
2023/06/25 10:34:04;;;;;;;4.40;3.60;;;;;;;27.10;44.89;101496.28;5014930;28;20034;-71
2023/06/25 10:36:30;;;;;;;3.72;3.42;;;;;;;27.23;45.30;101496.16;5014949;28;20424;-70
2023/06/25 10:38:58;;;;;;;3.90;3.42;;;;;;;27.31;44.51;101499.28;5014677;28;20041;-69
2023/06/25 10:41:28;;;;;;;6.30;4.10;;;;;;;27.41;44.69;101499.81;5014951;28;20026;-68
2023/06/25 10:43:53;;;;;;;8.27;4.10;;;;;;;27.64;46.76;101488.56;5014128;28;20546;-69
2023/06/25 10:46:26;;;;;;;5.07;3.47;;;;;;;27.65;42.74;101495.78;5031411;28;20108;-69
2023/06/25 10:48:52;;;;;;;4.97;3.80;;;;;;;27.61;41.50;101492.00;5034160;28;20025;-69
2023/06/25 10:51:19;;;;;;;4.00;3.67;;;;;;;27.67;41.26;101487.94;5034450;28;20377;-72
2023/06/25 10:53:44;;;;;;;5.63;3.63;;;;;;;27.67;41.67;101482.34;5032180;28;20041;-69
2023/06/25 10:56:11;;;;;;;6.05;3.67;;;;;;;27.70;42.33;101489.25;5024458;28;20054;-70
2023/06/25 10:58:36;;;;;;;4.43;3.72;;;;;;;27.91;45.07;101486.63;5030608;28;20032;-70
2023/06/25 11:01:02;;;;;;;4.10;3.47;;;;;;;27.88;40.48;101473.38;5032086;28;20025;-75
2023/06/25 11:03:34;;;;;;;5.78;3.65;;;;;;;27.92;40.83;101474.38;5034552;28;20380;-71
2023/06/25 11:06:00;;;;;;;3.90;3.47;;;;;;;28.00;40.03;101473.56;5034028;28;20064;-71
2023/06/25 11:08:25;;;;;;;4.03;3.40;;;;;;;28.09;40.34;101479.91;5024528;28;20080;-69
2023/06/25 11:10:51;;;;;;;8.60;3.63;;;;;;;28.24;43.05;101469.44;5032670;28;20469;-71
2023/06/25 11:13:17;;;;;;;3.70;3.33;;;;;;;28.27;40.63;101463.22;5033491;28;20522;-70
2023/06/25 11:15:42;;;;;;;4.65;3.60;;;;;;;28.30;41.08;101470.88;5033791;28;20029;-70
2023/06/25 11:18:09;;;;;;;4.70;3.45;;;;;;;28.49;43.97;101464.13;5031484;28;20084;-74
2023/06/25 11:20:35;;;;;;;4.43;3.50;;;;;;;28.48;40.87;101473.63;5032652;28;20185;-69
2023/06/25 11:23:03;;;;;;;4.07;3.25;;;;;;;28.50;40.12;101463.78;5028446;28;20101;-73
2023/06/25 11:25:29;;;;;;;3.67;3.33;;;;;;;28.48;40.67;101454.97;5032270;28;20025;-69
2023/06/25 11:28:06;;;;;;;7.30;3.80;;;;;;;28.52;40.17;101458.72;5033238;28;20034;-73
2023/06/25 11:30:32;;;;;;;5.22;3.72;;;;;;;28.46;40.06;101454.50;5033482;28;20103;-72
2023/06/25 11:33:11;;;;;;;3.83;3.33;;;;;;;28.54;40.99;101445.28;5032883;28;20358;-70
2023/06/25 11:35:36;;;;;;;4.97;3.50;;;;;;;28.79;41.64;101449.13;5033299;28;20037;-70
2023/06/25 11:38:02;;;;;;;5.75;3.55;;;;;;;28.93;40.55;101451.69;5028771;28;20381;-73
2023/06/25 11:40:29;;;;;;;4.07;3.30;;;;;;;28.94;38.17;101449.69;5030967;28;20167;-71
2023/06/25 11:42:55;;;;;;;4.70;3.30;;;;;;;28.91;39.25;101442.84;5032998;28;20039;-74
2023/06/25 11:45:22;;;;;;;3.55;3.25;;;;;;;29.02;38.86;101437.72;5032855;28;20033;-71
2023/06/25 11:47:50;;;;;;;4.20;3.60;;;;;;;29.06;37.69;101443.41;5033358;28;20488;-72
2023/06/25 11:50:22;;;;;;;3.90;3.50;;;;;;;29.07;38.94;101445.06;5032818;28;20029;-71
2023/06/25 11:52:48;;;;;;;4.45;4.05;;;;;;;29.35;41.41;101442.59;5033055;28;20087;-72
2023/06/25 11:55:13;;;;;;;5.30;3.35;;;;;;;29.49;39.80;101428.41;5024012;28;20034;-74
2023/06/25 11:57:39;;;;;;;4.20;3.55;;;;;;;29.50;38.06;101430.00;5011891;28;20381;-71
2023/06/25 12:00:05;;;;;;;3.55;3.25;;;;;;;29.56;38.06;101425.03;5021822;28;20064;-72
2023/06/25 12:02:31;;;;;;;6.30;3.63;;;;;;;29.55;37.94;101420.63;5030955;28;20029;-72
2023/06/25 12:04:56;;;;;;;3.65;3.35;;;;;;;29.48;37.57;101423.97;5028996;28;20117;-69
2023/06/25 12:07:21;;;;;;;6.47;3.60;;;;;;;29.41;37.07;101424.53;5030551;28;20458;-71
2023/06/25 12:09:47;;;;;;;4.88;3.40;;;;;;;29.61;38.19;101413.69;5031515;28;20033;-71
2023/06/25 12:12:12;;;;;;;5.18;3.75;;;;;;;29.62;37.79;101409.72;5031524;28;20563;-71
2023/06/25 12:14:38;;;;;;;3.47;3.10;;;;;;;29.77;37.40;101409.09;5032649;28;20022;-70
2023/06/25 12:17:03;;;;;;;5.30;3.75;;;;;;;29.86;37.75;101412.66;5031999;28;20029;-70
2023/06/25 12:19:29;;;;;;;7.03;3.53;;;;;;;29.94;37.49;101404.53;5031225;28;20024;-71
2023/06/25 12:21:56;;;;;;;4.85;3.80;;;;;;;30.11;37.28;101407.16;5032317;28;20120;-74
2023/06/25 12:24:23;;;;;;;3.60;3.22;;;;;;;30.00;36.08;101404.00;5015953;28;20468;-71
2023/06/25 12:26:48;;;;;;;6.20;3.50;;;;;;;29.91;36.64;101394.06;5032002;28;20021;-71
2023/06/25 12:29:14;;;;;;;6.38;3.70;;;;;;;30.12;39.31;101399.59;5032144;28;20392;-71
2023/06/25 12:31:39;;;;;;;4.65;3.47;;;;;;;30.22;38.14;101388.78;5032369;28;20025;-74
2023/06/25 12:34:05;;;;;;;4.85;3.47;;;;;;;30.28;36.72;101381.00;5027020;28;20465;-71
2023/06/25 12:36:30;;;;;;;4.70;3.38;;;;;;;30.57;37.33;101385.59;5027190;28;20033;-71
2023/06/25 12:38:57;;;;;;;3.50;3.08;;;;;;;30.64;35.97;101392.59;5012460;28;20393;-71
2023/06/25 12:41:23;;;;;;;6.65;3.40;;;;;;;30.53;34.66;101372.69;5012899;28;20484;-70
2023/06/25 12:43:48;;;;;;;4.75;3.60;;;;;;;30.52;35.30;101374.66;5011609;28;20033;-71
2023/06/25 12:46:14;;;;;;;3.92;3.33;;;;;;;30.68;35.75;101374.78;5028955;28;20039;-71
2023/06/25 12:48:39;;;;;;;6.35;3.25;;;;;;;30.83;34.55;101367.66;5021630;28;20045;-71
2023/06/25 12:51:04;;;;;;;4.38;3.20;;;;;;;30.91;35.70;101363.09;5019659;28;20145;-71
2023/06/25 12:53:29;;;;;;;4.03;3.40;;;;;;;31.14;38.11;101360.63;5036403;28;20120;-71
2023/06/25 12:55:55;;;;;;;3.78;3.47;;;;;;;31.15;34.94;101362.25;5045201;28;20519;-71
2023/06/25 12:58:20;;;;;;;4.72;3.33;;;;;;;31.26;35.45;101363.38;5052205;28;20029;-71
2023/06/25 13:00:46;;;;;;;3.95;3.47;;;;;;;31.10;34.07;101360.53;5031717;28;20025;-71
2023/06/25 13:03:11;;;;;;;5.45;3.60;;;;;;;30.93;34.23;101358.81;5020165;28;20368;-71
2023/06/25 13:05:36;;;;;;;4.75;3.38;;;;;;;30.85;34.22;101354.13;5032169;28;20037;-71
2023/06/25 13:08:02;;;;;;;3.40;3.10;;;;;;;30.95;34.15;101354.81;5032432;28;20029;-70
2023/06/25 13:10:27;;;;;;;4.78;3.10;;;;;;;31.00;34.50;101343.44;5029716;28;20091;-70
2023/06/25 13:12:52;;;;;;;4.47;3.05;;;;;;;31.29;36.26;101345.09;5013448;28;20038;-69
2023/06/25 13:15:18;;;;;;;3.67;3.38;;;;;;;31.30;33.93;101345.88;5023283;28;20029;-73
2023/06/25 13:17:43;;;;;;;3.60;3.13;;;;;;;31.32;33.81;101346.38;5032155;28;20040;-69
2023/06/25 13:20:09;;;;;;;5.47;3.40;;;;;;;31.28;32.97;101337.84;5014135;28;20466;-70
2023/06/25 13:22:34;;;;;;;6.15;3.50;;;;;;;31.47;33.56;101333.59;5025638;28;20478;-71
2023/06/25 13:25:00;;;;;;;4.37;3.23;;;;;;;31.60;33.85;101338.81;5012467;28;20033;-71
2023/06/25 13:27:25;;;;;;;3.25;2.92;;;;;;;31.91;35.96;101336.41;5012424;28;20369;-71
2023/06/25 13:29:50;;;;;;;4.10;3.25;;;;;;;32.01;35.26;101337.84;5011291;28;20030;-71
2023/06/25 13:32:16;;;;;;;5.53;3.70;;;;;;;32.03;34.34;101341.94;5023147;28;20040;-75
2023/06/25 13:34:41;;;;;;;4.90;3.40;;;;;;;32.05;33.80;101335.97;5024868;28;20040;-72
2023/06/25 13:37:06;;;;;;;4.43;3.38;;;;;;;32.21;33.29;101331.22;5027641;28;20068;-71
2023/06/25 13:39:32;;;;;;;3.40;3.10;;;;;;;32.25;32.74;101325.69;5024384;28;20076;-70
2023/06/25 13:41:57;;;;;;;3.78;3.30;;;;;;;32.30;34.22;101323.44;5011760;28;20472;-69
2023/06/25 13:44:23;;;;;;;3.60;3.30;;;;;;;32.43;33.46;101328.91;5019644;28;20029;-69
2023/06/25 13:46:48;;;;;;;3.95;3.20;;;;;;;32.40;31.24;101330.47;5024164;28;20037;-69
2023/06/25 13:49:13;;;;;;;6.68;3.30;;;;;;;32.37;31.03;101325.63;5016572;28;21845;-69
2023/06/25 13:51:39;;;;;;;5.22;3.45;;;;;;;32.41;31.10;101320.88;5031791;28;20432;-70
2023/06/25 13:54:04;;;;;;;3.72;3.25;;;;;;;32.39;31.00;101314.84;5034633;28;20108;-70
2023/06/25 13:56:30;;;;;;;3.75;3.15;;;;;;;32.15;30.97;101311.06;5030166;28;20136;-71
2023/06/25 13:58:55;;;;;;;3.45;3.10;;;;;;;32.12;31.99;101316.59;5035055;28;20040;-68
2023/06/25 14:01:21;;;;;;;3.80;3.30;;;;;;;32.18;33.41;101312.34;5032526;28;20029;-69
2023/06/25 14:03:46;;;;;;;3.95;3.28;;;;;;;32.45;32.09;101318.19;5034877;28;20085;-69
2023/06/25 14:06:11;;;;;;;3.42;3.13;;;;;;;32.46;31.63;101300.19;5026797;28;20029;-69
2023/06/25 14:08:37;;;;;;;4.13;3.22;;;;;;;32.41;30.96;101300.47;5026671;28;20061;-69
2023/06/25 14:11:02;;;;;;;4.20;3.40;;;;;;;32.41;30.47;101298.47;5019117;28;20671;-68
2023/06/25 14:13:28;;;;;;;6.32;3.20;;;;;;;32.52;30.87;101304.31;5031528;28;20037;-69
2023/06/25 14:15:53;;;;;;;3.53;3.22;;;;;;;32.63;31.03;101305.41;5027872;28;20034;-68
2023/06/25 14:18:19;;;;;;;3.95;3.53;;;;;;;32.75;32.10;101303.66;5017957;28;20038;-69
2023/06/25 14:20:44;;;;;;;4.85;3.20;;;;;;;32.94;31.71;101303.69;5028534;28;20029;-69
2023/06/25 14:23:10;;;;;;;3.53;3.22;;;;;;;32.91;33.49;101304.41;5018800;28;20030;-68
2023/06/25 14:25:35;;;;;;;4.70;3.30;;;;;;;33.10;31.29;101295.22;5023361;28;20041;-68
2023/06/25 14:28:01;;;;;;;3.67;3.30;;;;;;;33.22;30.74;101285.88;5033532;28;20354;-69
2023/06/25 14:30:26;;;;;;;6.50;3.70;;;;;;;33.30;31.51;101289.63;5028881;28;20476;-68
2023/06/25 14:32:51;;;;;;;7.07;3.50;;;;;;;33.21;33.11;101284.25;5015165;28;20026;-68
2023/06/25 14:35:17;;;;;;;3.50;3.20;;;;;;;33.36;31.71;101291.75;5016844;28;20480;-71
2023/06/25 14:37:42;;;;;;;4.00;3.03;;;;;;;33.49;30.80;101286.00;5026049;28;20025;-69
2023/06/25 14:40:08;;;;;;;3.45;3.15;;;;;;;33.41;29.93;101275.81;5014977;28;20034;-68
2023/06/25 14:42:34;;;;;;;3.83;3.38;;;;;;;33.45;32.33;101282.31;5030111;28;20048;-71
2023/06/25 14:45:04;;;;;;;4.43;3.40;;;;;;;33.55;32.96;101271.28;5032635;28;20385;-69
2023/06/25 14:47:33;;;;;;;6.35;3.38;;;;;;;33.64;31.38;101279.44;5020058;28;20036;-68
2023/06/25 14:49:59;;;;;;;5.78;3.38;;;;;;;33.68;30.82;101274.72;5030845;28;20033;-70
2023/06/25 14:52:24;;;;;;;3.90;3.20;;;;;;;33.66;30.85;101276.28;5030452;28;20040;-72
2023/06/25 14:54:49;;;;;;;3.72;3.17;;;;;;;33.73;30.28;101270.81;5014485;28;20485;-68
2023/06/25 14:57:15;;;;;;;3.47;3.05;;;;;;;33.84;29.95;101265.38;5012831;28;20259;-71
2023/06/25 14:59:41;;;;;;;4.43;3.40;;;;;;;33.78;31.39;101266.88;5019942;28;20031;-68
2023/06/25 15:02:06;;;;;;;3.63;3.17;;;;;;;33.77;32.05;101265.25;5014817;28;20731;-70
2023/06/25 15:04:31;;;;;;;4.53;3.30;;;;;;;33.79;31.97;101262.88;5022109;28;20062;-69
2023/06/25 15:06:57;;;;;;;4.15;3.20;;;;;;;33.91;30.27;101259.91;5029036;28;20114;-68
2023/06/25 15:09:22;;;;;;;3.40;3.10;;;;;;;33.95;31.25;101249.50;5021240;28;20065;-69
2023/06/25 15:11:48;;;;;;;4.50;3.25;;;;;;;34.12;30.54;101255.78;5037937;28;20797;-69
2023/06/25 15:14:13;;;;;;;3.53;2.90;;;;;;;34.21;30.10;101245.09;5024926;28;20507;-70
2023/06/25 15:16:39;;;;;;;3.35;3.03;;;;;;;34.18;29.56;101251.47;5028798;28;20039;-69
2023/06/25 15:19:04;;;;;;;5.47;3.20;;;;;;;34.32;29.69;101248.09;5015844;28;20037;-69
2023/06/25 15:21:29;;;;;;;3.60;3.30;;;;;;;34.39;31.54;101254.66;5015415;28;20164;-69
2023/06/25 15:23:54;;;;;;;3.97;3.55;;;;;;;34.26;32.82;101247.63;5031483;28;20033;-71
2023/06/25 15:26:20;;;;;;;4.32;3.10;;;;;;;34.40;29.37;101253.44;5024327;28;20055;-70
2023/06/25 15:28:48;;;;;;;3.20;2.90;;;;;;;34.35;29.57;101242.53;5014676;28;20392;-69
2023/06/25 15:31:14;;;;;;;3.15;2.90;;;;;;;34.44;29.74;101237.44;5023770;28;20037;-69
2023/06/25 15:33:40;;;;;;;3.72;3.10;;;;;;;34.37;28.72;101236.53;5033860;28;20132;-70
2023/06/25 15:36:05;;;;;;;4.05;2.90;;;;;;;34.52;28.86;101241.16;5031286;28;20548;-69
2023/06/25 15:38:30;;;;;;;3.38;2.90;;;;;;;34.59;29.16;101238.44;5033468;28;20030;-70
2023/06/25 15:40:56;;;;;;;2.85;2.63;;;;;;;34.36;29.98;101220.88;5014540;28;20040;-72
2023/06/25 15:43:22;;;;;;;3.25;2.97;;;;;;;34.47;32.30;101221.00;5013601;28;20036;-73
2023/06/25 15:45:48;;;;;;;4.10;2.88;;;;;;;34.41;28.99;101221.34;5015947;28;20044;-69
2023/06/25 15:48:13;;;;;;;6.00;3.10;;;;;;;34.39;28.67;101223.75;5025765;28;20025;-70
2023/06/25 15:50:39;;;;;;;3.10;2.63;;;;;;;34.46;29.73;101225.03;5029265;28;20839;-71
2023/06/25 15:53:05;;;;;;;3.88;2.60;;;;;;;34.46;29.23;101216.59;5031097;28;20295;-71
2023/06/25 15:55:30;;;;;;;3.00;2.70;;;;;;;34.64;28.21;101214.81;5016920;28;20049;-69
2023/06/25 15:57:56;;;;;;;3.90;2.90;;;;;;;34.85;27.95;101207.88;5014943;28;20038;-71
2023/06/25 16:00:21;;;;;;;4.35;2.80;;;;;;;34.99;30.07;101212.84;5022416;28;20034;-71
2023/06/25 16:02:48;;;;;;;3.10;2.80;;;;;;;35.40;27.77;101210.09;5024375;28;20375;-71
2023/06/25 16:05:13;;;;;;;5.32;3.58;;;;;;;35.40;29.10;101213.69;5018326;28;20037;-69
2023/06/25 16:07:41;;;;;;;4.78;4.38;;;;;;;35.05;28.97;101203.69;5012721;28;20041;-70
